Billings, MT (59101)

12:58 PM MDT on June 22, 2017 (GMT -0600)
Jupiter Sulphur | | Change Station

Elev 3114 ft 45.78 °N, 108.49 °W | Updated 28 minutes ago

Partly Cloudy
Partly Cloudy
74.5 °F
Feels Like 76 °F
N
12.0
Wind Variable Wind from SW
Gusts 14.0 mph

Today
High -- | Low -- °F
--% Chance of Precip.
Yesterday
High -- | Low -- °F
Precip. -- in
Pressure 29.92 in
Visibility 10.0 miles
Clouds Scattered Clouds 6500 ft
Heat Index 76 °F
Dew Point 32 °F
Humidity 21%
Rainfall 0.00 in
Snow Depth Not available.
5:24 AM 9:07 PM
Waning Crescent, 3% visible
METAR KBIL 221853Z 33020G27KT 10SM SCT065 23/M04 A3000 RMK AO2 PK WND 33027/1853 SLP131 T02281039
Pressure 29.92 in
Visibility 10.0 miles
Clouds Scattered Clouds 6500 ft
Heat Index 76 °F
Dew Point 32 °F
Humidity 21%
Rainfall 0.00 in
Snow Depth Not available.
5:24 AM 9:07 PM
Waning Crescent, 3% visible
METAR KBIL 221853Z 33020G27KT 10SM SCT065 23/M04 A3000 RMK AO2 PK WND 33027/1853 SLP131 T02281039

Get Severe Weather Alerts

Thanks for signing up!

Be on the lookout for a verification email in your inbox.

You'll start receiving the daily forecast at 6 AM.

×

10-Day Weather Forecast

Almanac

Astronomy

Jun. 22, 2017 Rise Set
Actual Time
Civil Twilight
Nautical Twilight
Astronomical Twilight
Moon
Length of Visible Light
Length of Day
Tomorrow will be .
, % of the Moon is Illuminated

Today's Extremes

State Highs State Lows

Community

WunderPhotos

Category 6

Welcome to Category 6. This is the collective home for Weather Underground's featured writeups by Dr. Jeff Masters (right), Bob Henson (left), Chris Burt, and other regular contributors.

Nearby

Air Quality

  Air Quality AQ Index Pollutant
Not available.

Snow Depth

Station Depth Elevation

Earthquake Activity

City Distance Mag. Time & Date
Minimum magnitude displayed is 2.5.

Coastal Water Temperatures

Place Temperature

Stations

Nearby Weather Stations

Station Location Temp. Windchill Dew Point Humidity Wind Precip. Elev Updated Type
                   

Watches & Warnings

There are currently no watches in effect.